Time;durP1;ratioP1;P1;durP2;ratioP2;P2;SDS_P1;SDS_P2;PMS_P1;PMS_P2;Temp;Humidity;BMP_temperature;BMP_pressure;BME280_temperature;BME280_humidity;BME280_pressure;Samples;Min_cycle;Max_cycle;Signal;HPM_P1;HPM_P2
2021/12/30 00:00:12;;;;;;;13.83;4.07;;;;;;;16.25;100.00;100923.47;5096713;28;20032;-51
2021/12/30 00:02:41;;;;;;;4.60;3.83;;;;;;;16.13;100.00;100921.53;5096657;28;20490;-53
2021/12/30 00:05:07;;;;;;;3.72;2.38;;;;;;;15.91;100.00;100927.50;5095304;28;20287;-51
2021/12/30 00:07:33;;;;;;;3.13;2.88;;;;;;;15.56;100.00;100914.63;5096061;28;20036;-52
2021/12/30 00:09:58;;;;;;;2.97;2.58;;;;;;;16.22;100.00;100905.84;5097196;28;20059;-52
2021/12/30 00:12:24;;;;;;;5.18;3.10;;;;;;;15.95;100.00;100913.53;5095395;28;20504;-51
2021/12/30 00:14:50;;;;;;;3.58;2.78;;;;;;;16.03;100.00;100910.50;5094851;28;20038;-52
2021/12/30 00:17:15;;;;;;;4.28;1.80;;;;;;;15.85;100.00;100920.25;5095488;28;20047;-53
2021/12/30 00:19:41;;;;;;;1.03;1.03;;;;;;;16.13;100.00;100926.13;5096628;28;20490;-51
2021/12/30 00:22:06;;;;;;;4.73;3.20;;;;;;;15.78;100.00;100924.94;5096231;28;20264;-49
2021/12/30 00:24:32;;;;;;;1.55;1.35;;;;;;;15.82;100.00;100928.81;5096184;28;20653;-54
2021/12/30 00:26:57;;;;;;;6.78;3.30;;;;;;;15.69;100.00;100937.91;5096497;28;20042;-52
2021/12/30 00:29:24;;;;;;;3.22;1.73;;;;;;;15.84;100.00;100928.59;5095878;28;20410;-51
2021/12/30 00:31:50;;;;;;;;;;;;;;;15.81;100.00;100935.25;5096158;28;20035;-54
2021/12/30 00:34:15;;;;;;;19.43;3.03;;;;;;;15.94;100.00;100920.00;5094803;28;19915;-54
2021/12/30 00:36:41;;;;;;;7.22;5.47;;;;;;;15.64;100.00;100924.28;5096519;28;20027;-53
2021/12/30 00:39:07;;;;;;;3.92;2.13;;;;;;;15.97;100.00;100927.63;5095700;28;20105;-49
2021/12/30 00:41:32;;;;;;;4.18;1.55;;;;;;;15.74;100.00;100934.53;5094137;28;20134;-52
2021/12/30 00:43:58;;;;;;;1.43;1.43;;;;;;;15.93;100.00;100927.25;5096383;28;20031;-54
2021/12/30 00:46:23;;;;;;;15.43;4.50;;;;;;;15.79;100.00;100923.88;5095779;28;20032;-49
2021/12/30 00:48:49;;;;;;;5.23;2.33;;;;;;;16.31;100.00;100920.66;5095864;28;20028;-54
2021/12/30 00:51:14;;;;;;;0.87;0.87;;;;;;;15.94;100.00;100923.50;5100867;28;20360;-55
2021/12/30 00:53:41;;;;;;;5.23;4.70;;;;;;;15.92;100.00;100928.28;5085101;28;20376;-53
2021/12/30 00:56:06;;;;;;;29.70;4.70;;;;;;;16.08;100.00;100926.81;5078297;28;20541;-50
2021/12/30 00:58:32;;;;;;;6.10;3.03;;;;;;;15.85;100.00;100931.03;5094130;28;20264;-50
2021/12/30 01:00:59;;;;;;;1.75;1.50;;;;;;;16.11;100.00;100952.53;5095181;28;20032;-51
2021/12/30 01:03:27;;;;;;;6.27;1.43;;;;;;;16.17;100.00;100952.44;5094053;28;20039;-51
2021/12/30 01:05:53;;;;;;;1.97;1.10;;;;;;;16.42;100.00;100945.19;5095642;28;20283;-53
2021/12/30 01:08:19;;;;;;;4.63;4.22;;;;;;;16.04;100.00;100936.44;5095119;28;20290;-52
2021/12/30 01:10:46;;;;;;;1.53;1.43;;;;;;;16.30;100.00;100947.88;5095315;28;20039;-51
2021/12/30 01:13:17;;;;;;;4.17;2.50;;;;;;;16.34;100.00;100946.34;5094905;28;20284;-53
2021/12/30 01:16:00;;;;;;;8.67;5.10;;;;;;;16.09;100.00;100957.31;5094997;28;20260;-51
2021/12/30 01:18:39;;;;;;;20.80;3.10;;;;;;;16.61;100.00;100951.34;5095486;28;20351;-55
2021/12/30 01:21:09;;;;;;;40.17;5.03;;;;;;;16.52;100.00;100966.22;5095137;28;20261;-54
2021/12/30 01:23:35;;;;;;;1.13;1.13;;;;;;;16.42;100.00;100966.78;5095139;28;20288;-51
2021/12/30 01:26:03;;;;;;;1.52;1.42;;;;;;;16.28;100.00;100967.00;5094206;28;20597;-53
2021/12/30 01:28:29;;;;;;;4.27;2.30;;;;;;;16.88;100.00;100961.69;5094886;28;20024;-55
2021/12/30 01:30:55;;;;;;;2.13;1.07;;;;;;;16.60;100.00;100960.47;5095122;28;20313;-54
2021/12/30 01:33:21;;;;;;;3.20;1.87;;;;;;;16.61;100.00;100959.44;5095463;28;20292;-53
2021/12/30 01:35:47;;;;;;;2.63;2.43;;;;;;;16.66;100.00;100964.13;5094685;28;20252;-51
2021/12/30 01:38:15;;;;;;;4.43;2.90;;;;;;;16.61;100.00;100973.75;5093514;28;20089;-50
2021/12/30 01:40:42;;;;;;;24.30;5.60;;;;;;;16.69;100.00;100974.47;5095305;28;20047;-52
2021/12/30 01:43:10;;;;;;;2.40;1.73;;;;;;;16.73;100.00;100973.78;5094439;28;20336;-53
2021/12/30 01:45:37;;;;;;;8.83;2.50;;;;;;;16.89;100.00;100966.84;5094239;28;20335;-53
2021/12/30 01:48:02;;;;;;;3.80;2.83;;;;;;;16.70;100.00;100958.03;5094251;28;20265;-53
2021/12/30 01:50:28;;;;;;;7.13;3.53;;;;;;;16.69;100.00;100951.00;5094298;28;20028;-55
2021/12/30 01:52:54;;;;;;;2.93;2.67;;;;;;;16.89;100.00;100982.25;5094167;28;20059;-51
2021/12/30 01:55:23;;;;;;;6.93;3.63;;;;;;;16.83;100.00;100969.66;5094806;28;20248;-54
2021/12/30 01:57:49;;;;;;;3.03;2.37;;;;;;;17.25;100.00;100977.66;5093863;28;20032;-53
2021/12/30 02:00:19;;;;;;;11.52;5.70;;;;;;;17.10;100.00;100985.44;5093964;28;20347;-51
2021/12/30 02:02:44;;;;;;;8.07;2.30;;;;;;;17.19;100.00;100989.44;5093981;28;20032;-50
2021/12/30 02:05:11;;;;;;;3.22;2.83;;;;;;;16.92;100.00;100985.28;5094419;28;20279;-52
2021/12/30 02:07:37;;;;;;;0.73;0.73;;;;;;;16.98;100.00;100986.25;5093475;28;20040;-53
2021/12/30 02:10:05;;;;;;;1.60;1.50;;;;;;;16.84;100.00;100995.59;5093787;28;20280;-51
2021/12/30 02:12:33;;;;;;;28.33;4.03;;;;;;;17.28;100.00;101001.50;5094568;28;20337;-52
2021/12/30 02:14:59;;;;;;;2.43;2.10;;;;;;;17.06;100.00;101010.22;5097325;28;20271;-55
2021/12/30 02:17:25;;;;;;;9.73;3.72;;;;;;;17.10;100.00;101007.88;5101068;28;20350;-51
2021/12/30 02:19:50;;;;;;;2.88;1.92;;;;;;;17.29;100.00;101008.56;5094493;28;20522;-54
2021/12/30 02:22:16;;;;;;;28.02;5.97;;;;;;;17.60;100.00;101005.69;5093834;28;20046;-52
2021/12/30 02:24:49;;;;;;;3.00;2.35;;;;;;;17.53;100.00;101005.03;5093555;28;20388;-52
2021/12/30 02:27:16;;;;;;;4.30;3.37;;;;;;;17.16;100.00;100995.31;5093764;28;20082;-52
2021/12/30 02:29:41;;;;;;;7.60;2.13;;;;;;;17.03;100.00;100997.19;5093881;28;20257;-55
2021/12/30 02:32:07;;;;;;;5.68;2.38;;;;;;;17.15;100.00;100985.56;5094405;28;20043;-52
2021/12/30 02:34:33;;;;;;;2.17;2.05;;;;;;;17.33;100.00;100996.25;5093667;28;20535;-53
2021/12/30 02:36:58;;;;;;;0.65;0.65;;;;;;;17.30;100.00;100999.44;5093768;28;20467;-52
2021/12/30 02:39:24;;;;;;;41.30;5.53;;;;;;;17.26;100.00;101000.94;5092862;28;20391;-53
2021/12/30 02:41:51;;;;;;;2.50;1.88;;;;;;;17.28;100.00;101001.50;5093322;28;20032;-50
2021/12/30 02:44:17;;;;;;;2.10;2.00;;;;;;;17.17;100.00;101002.34;5092065;28;20120;-51
2021/12/30 02:46:43;;;;;;;1.80;1.67;;;;;;;17.24;100.00;101005.75;5093217;28;20128;-52
2021/12/30 02:49:09;;;;;;;1.40;1.35;;;;;;;17.46;100.00;101005.97;5093240;28;20375;-53
2021/12/30 02:51:35;;;;;;;;;;;;;;;17.19;100.00;101008.34;5093185;28;20355;-54
2021/12/30 02:54:02;;;;;;;4.83;2.20;;;;;;;17.53;100.00;101013.97;5093537;28;20061;-54
2021/12/30 02:56:28;;;;;;;7.60;3.47;;;;;;;17.26;100.00;101014.44;5093988;28;20024;-52
2021/12/30 02:58:54;;;;;;;14.10;2.47;;;;;;;17.38;100.00;101010.91;5093101;28;20272;-50
2021/12/30 03:01:23;;;;;;;5.28;4.22;;;;;;;17.45;100.00;101006.19;5092508;28;20377;-51
2021/12/30 03:03:50;;;;;;;2.57;2.37;;;;;;;17.36;100.00;100997.63;5093530;28;20054;-53
2021/12/30 03:06:17;;;;;;;0.40;0.40;;;;;;;17.44;100.00;101009.97;5093827;28;20321;-53
2021/12/30 03:08:44;;;;;;;1.40;1.33;;;;;;;17.42;100.00;101004.81;5093387;28;20341;-52
2021/12/30 03:11:10;;;;;;;1.67;1.57;;;;;;;17.38;100.00;101003.63;5093948;28;20024;-55
2021/12/30 03:13:40;;;;;;;5.05;1.50;;;;;;;17.75;100.00;101010.59;5092346;28;20279;-52
2021/12/30 03:16:11;;;;;;;2.53;2.03;;;;;;;17.80;100.00;101024.25;5093358;28;20081;-53
2021/12/30 03:18:38;;;;;;;4.87;3.33;;;;;;;17.32;100.00;101024.34;5094076;28;20261;-53
2021/12/30 03:21:08;;;;;;;1.60;1.33;;;;;;;17.76;100.00;101023.91;5093309;28;20256;-54
2021/12/30 03:23:34;;;;;;;1.77;1.67;;;;;;;17.53;100.00;101029.34;5091814;28;20271;-53
2021/12/30 03:26:00;;;;;;;1.17;1.17;;;;;;;17.50;100.00;101019.81;5093105;28;20261;-55
2021/12/30 03:28:26;;;;;;;6.93;2.08;;;;;;;17.70;100.00;101018.63;5093463;28;20504;-53
2021/12/30 03:30:51;;;;;;;9.32;3.72;;;;;;;17.56;100.00;101020.75;5093490;28;20040;-52
2021/12/30 03:33:20;;;;;;;6.25;3.00;;;;;;;17.44;100.00;101027.03;5092000;28;20055;-54
2021/12/30 03:35:46;;;;;;;1.67;1.57;;;;;;;17.29;100.00;101030.19;5093247;28;20032;-55
2021/12/30 03:38:12;;;;;;;1.73;1.60;;;;;;;17.87;100.00;101024.09;5093059;28;20324;-52
2021/12/30 03:40:38;;;;;;;8.55;1.80;;;;;;;17.39;100.00;101029.59;5096615;28;20068;-55
2021/12/30 03:43:03;;;;;;;1.15;1.05;;;;;;;17.63;100.00;101024.97;5099469;28;20043;-53
2021/12/30 03:45:29;;;;;;;1.10;1.08;;;;;;;17.97;100.00;101026.19;5096361;28;20031;-50
2021/12/30 03:47:55;;;;;;;26.75;1.90;;;;;;;18.21;100.00;101024.25;5093340;28;20040;-50
2021/12/30 03:50:24;;;;;;;2.50;2.17;;;;;;;18.04;100.00;101016.91;5094524;28;20456;-50
2021/12/30 03:52:52;;;;;;;0.73;0.70;;;;;;;18.05;100.00;101009.59;5096359;28;20351;-51
2021/12/30 03:55:19;;;;;;;0.53;0.53;;;;;;;17.61;100.00;101015.44;5098111;28;20269;-51
2021/12/30 03:57:45;;;;;;;0.20;0.20;;;;;;;17.59;100.00;101013.00;5080375;28;20275;-51
2021/12/30 04:00:12;;;;;;;3.20;2.25;;;;;;;18.08;100.00;101019.13;5098646;28;20359;-52
2021/12/30 04:02:38;;;;;;;1.17;1.10;;;;;;;17.99;100.00;101015.94;5097944;28;20038;-52
2021/12/30 04:05:04;;;;;;;0.40;0.40;;;;;;;17.86;100.00;101011.63;5095925;28;20690;-50
2021/12/30 04:07:30;;;;;;;0.40;0.40;;;;;;;17.90;100.00;101013.63;5096186;28;20089;-50
2021/12/30 04:09:55;;;;;;;0.30;0.30;;;;;;;18.05;100.00;101021.25;5095840;28;20412;-51
2021/12/30 04:12:21;;;;;;;1.10;1.10;;;;;;;18.17;100.00;101032.03;5096334;28;20119;-51
2021/12/30 04:14:47;;;;;;;0.77;0.77;;;;;;;17.86;100.00;101034.09;5096157;28;20328;-51
2021/12/30 04:17:13;;;;;;;0.10;0.10;;;;;;;17.39;100.00;101039.59;5096370;28;20063;-50
2021/12/30 04:19:38;;;;;;;0.60;0.60;;;;;;;17.67;100.00;101046.13;5096300;28;20361;-51
2021/12/30 04:22:04;;;;;;;1.80;1.67;;;;;;;17.55;100.00;101055.09;5096299;28;20040;-50
2021/12/30 04:24:29;;;;;;;1.17;1.10;;;;;;;17.92;100.00;101054.78;5096493;28;20375;-54
2021/12/30 04:26:55;;;;;;;0.53;0.53;;;;;;;18.16;100.00;101046.63;5096230;28;20084;-53
2021/12/30 04:29:21;;;;;;;0.10;0.10;;;;;;;17.44;100.00;101047.81;5096131;28;20257;-52
2021/12/30 04:31:46;;;;;;;0.57;0.57;;;;;;;17.32;100.00;101039.72;5096077;28;20089;-53
2021/12/30 04:34:12;;;;;;;0.38;0.38;;;;;;;17.54;100.00;101045.34;5096619;28;20127;-54
2021/12/30 04:36:38;;;;;;;0.40;0.40;;;;;;;17.54;100.00;101047.22;5095707;28;20055;-54
2021/12/30 04:39:04;;;;;;;0.47;0.47;;;;;;;17.50;100.00;101041.44;5096207;28;20108;-52
2021/12/30 04:41:30;;;;;;;0.30;0.30;;;;;;;17.47;100.00;101048.19;5095856;28;20519;-52
2021/12/30 04:43:56;;;;;;;1.17;0.70;;;;;;;17.58;100.00;101041.09;5094477;28;20036;-53
2021/12/30 04:46:21;;;;;;;1.50;1.40;;;;;;;17.61;100.00;101037.94;5095942;28;20380;-51
2021/12/30 04:48:49;;;;;;;0.10;0.10;;;;;;;17.31;100.00;101038.91;5095509;28;20040;-53
2021/12/30 04:51:16;;;;;;;0.37;0.37;;;;;;;17.75;100.00;101037.66;5096084;28;20337;-54
2021/12/30 04:53:41;;;;;;;0.20;0.20;;;;;;;17.67;100.00;101038.03;5095405;28;20348;-52
2021/12/30 04:56:07;;;;;;;0.35;0.35;;;;;;;17.59;100.00;101044.63;5095388;28;20385;-51
2021/12/30 04:58:32;;;;;;;0.30;0.30;;;;;;;17.79;100.00;101044.25;5095585;28;20039;-52
2021/12/30 05:00:58;;;;;;;0.60;0.40;;;;;;;17.91;100.00;101047.72;5095037;28;20273;-50
2021/12/30 05:03:23;;;;;;;2.15;1.00;;;;;;;17.87;100.00;101035.75;5093648;28;20513;-51
2021/12/30 05:05:51;;;;;;;1.33;1.23;;;;;;;17.48;100.00;101046.28;5096648;28;20061;-51
2021/12/30 05:08:22;;;;;;;6.53;4.00;;;;;;;17.81;100.00;101052.94;5099860;28;20275;-55
2021/12/30 05:10:50;;;;;;;13.93;7.47;;;;;;;17.44;100.00;101042.41;5096902;28;20288;-51
2021/12/30 05:13:17;;;;;;;35.07;13.33;;;;;;;17.47;100.00;101047.34;5095095;28;20271;-51
2021/12/30 05:15:43;;;;;;;45.20;17.10;;;;;;;17.63;100.00;101045.78;5094934;28;20616;-52
2021/12/30 05:18:10;;;;;;;43.70;17.65;;;;;;;17.37;100.00;101042.53;5095126;28;20264;-52
2021/12/30 05:20:37;;;;;;;39.93;17.53;;;;;;;17.45;100.00;101044.06;5095123;28;20043;-52
2021/12/30 05:23:03;;;;;;;54.03;20.37;;;;;;;17.58;100.00;101054.63;5093888;28;20604;-51
2021/12/30 05:25:29;;;;;;;53.33;19.27;;;;;;;17.57;100.00;101046.75;5095079;28;20284;-51
2021/12/30 05:27:56;;;;;;;54.42;20.58;;;;;;;17.31;100.00;101055.13;5094810;28;20103;-53
2021/12/30 05:30:23;;;;;;;59.13;19.70;;;;;;;17.99;100.00;101053.81;5094946;28;20456;-57
2021/12/30 05:32:50;;;;;;;51.50;18.20;;;;;;;17.48;100.00;101051.69;5094974;28;20032;-52
2021/12/30 05:35:17;;;;;;;44.80;18.07;;;;;;;17.24;100.00;101049.00;5093638;28;20295;-51
2021/12/30 05:37:42;;;;;;;37.63;15.90;;;;;;;17.31;100.00;101062.41;5094860;28;20298;-53
2021/12/30 05:40:11;;;;;;;43.47;19.13;;;;;;;17.74;100.00;101046.81;5095048;28;20541;-53
2021/12/30 05:42:37;;;;;;;27.00;14.33;;;;;;;17.36;100.00;101050.88;5094947;28;20028;-53
2021/12/30 05:45:04;;;;;;;35.45;15.57;;;;;;;17.17;100.00;101043.69;5094673;28;20393;-51
2021/12/30 05:47:29;;;;;;;38.97;16.93;;;;;;;17.51;100.00;101059.31;5094325;28;20040;-50
2021/12/30 05:49:55;;;;;;;37.72;16.08;;;;;;;17.41;100.00;101064.50;5094111;28;20718;-53
2021/12/30 05:52:21;;;;;;;32.25;18.70;;;;;;;17.23;100.00;101058.16;5094321;28;20114;-53
2021/12/30 05:54:46;;;;;;;37.00;19.15;;;;;;;17.69;100.00;101060.25;5094766;28;20043;-52
2021/12/30 05:57:12;;;;;;;40.50;19.57;;;;;;;17.55;100.00;101065.91;5077154;28;20047;-51
2021/12/30 05:59:37;;;;;;;44.05;23.05;;;;;;;17.49;100.00;101064.16;5094901;28;20500;-50
2021/12/30 06:02:03;;;;;;;48.60;22.00;;;;;;;17.79;100.00;101055.06;5093170;28;20466;-51
2021/12/30 06:04:29;;;;;;;49.22;22.23;;;;;;;17.30;100.00;101031.84;5094082;28;20119;-51
2021/12/30 06:06:55;;;;;;;52.45;23.27;;;;;;;17.49;100.00;101056.88;5094030;28;20511;-51
2021/12/30 06:09:22;;;;;;;41.38;20.52;;;;;;;17.28;100.00;101060.16;5094435;28;20377;-50
2021/12/30 06:11:48;;;;;;;41.70;20.57;;;;;;;17.05;100.00;101070.72;5094181;28;20043;-53
2021/12/30 06:14:13;;;;;;;34.92;19.60;;;;;;;17.04;100.00;101077.16;5094151;28;20322;-50
2021/12/30 06:16:39;;;;;;;27.50;14.38;;;;;;;17.04;100.00;101044.75;5076617;28;20408;-53
2021/12/30 06:19:04;;;;;;;28.47;12.87;;;;;;;16.80;100.00;101065.50;5094152;28;20427;-51
2021/12/30 06:21:30;;;;;;;22.50;9.43;;;;;;;16.76;100.00;101086.72;5094474;28;20044;-52
2021/12/30 06:23:56;;;;;;;27.42;10.57;;;;;;;16.65;100.00;101052.44;5075956;28;20036;-53
2021/12/30 06:26:21;;;;;;;29.27;9.73;;;;;;;16.92;100.00;101089.81;5094163;28;20063;-53
2021/12/30 06:28:47;;;;;;;22.70;9.40;;;;;;;16.82;100.00;101087.69;5075783;28;20632;-54
2021/12/30 06:31:12;;;;;;;28.93;9.23;;;;;;;16.95;100.00;101078.53;5093713;28;20036;-55
2021/12/30 06:33:38;;;;;;;29.33;9.47;;;;;;;16.80;100.00;101065.50;5095515;28;20348;-55
2021/12/30 06:36:04;;;;;;;37.55;11.48;;;;;;;16.54;100.00;101109.91;5098624;28;20036;-50
2021/12/30 06:38:29;;;;;;;;;;;;;;;16.73;100.00;101108.78;5095993;28;20039;-49
2021/12/30 06:40:55;;;;;;;37.70;11.43;;;;;;;16.95;100.00;101105.56;5094186;28;19908;-54
2021/12/30 06:43:20;;;;;;;34.93;14.17;;;;;;;17.21;100.00;101130.53;5092845;28;20040;-53
2021/12/30 06:45:46;;;;;;;36.67;12.73;;;;;;;17.10;100.00;101112.44;5093488;28;20043;-53
2021/12/30 06:48:14;;;;;;;42.40;14.33;;;;;;;17.11;100.00;101104.09;5092584;28;20028;-54
2021/12/30 06:50:53;;;;;;;27.17;11.13;;;;;;;16.97;100.00;101114.25;5094489;28;20036;-54
2021/12/30 06:53:23;;;;;;;29.23;11.73;;;;;;;16.83;100.00;101107.41;5093539;28;20394;-54
2021/12/30 06:55:50;;;;;;;30.67;12.23;;;;;;;17.20;100.00;101104.56;5092752;28;20770;-53
2021/12/30 06:58:17;;;;;;;34.63;14.70;;;;;;;16.78;100.00;101094.59;5092575;28;20566;-52
2021/12/30 07:00:42;;;;;;;;;;;;;;;16.81;100.00;101121.16;5092658;28;20418;-51
2021/12/30 07:03:08;;;;;;;32.73;13.10;;;;;;;17.24;100.00;101130.06;5092551;28;19999;-51
2021/12/30 07:05:34;;;;;;;42.97;14.90;;;;;;;17.31;100.00;101124.56;5092278;28;20036;-55
2021/12/30 07:08:00;;;;;;;43.40;16.88;;;;;;;17.55;100.00;101124.56;5093915;28;20281;-53
2021/12/30 07:10:26;;;;;;;33.13;14.40;;;;;;;16.90;100.00;101129.75;5094206;28;20058;-53
2021/12/30 07:12:51;;;;;;;42.88;17.13;;;;;;;17.03;100.00;101104.44;5094000;28;20171;-50
2021/12/30 07:15:18;;;;;;;32.60;12.33;;;;;;;17.00;100.00;101121.91;5092502;28;20379;-54
2021/12/30 07:17:43;;;;;;;35.55;14.50;;;;;;;17.29;100.00;101146.41;5092105;28;20527;-54
2021/12/30 07:20:10;;;;;;;38.92;16.45;;;;;;;17.09;100.00;101125.13;5093774;28;20134;-55
2021/12/30 07:22:36;;;;;;;37.03;15.93;;;;;;;17.12;100.00;101131.94;5093292;28;20036;-54
2021/12/30 07:25:02;;;;;;;41.33;16.15;;;;;;;17.19;100.00;101129.94;5094813;28;20745;-50
2021/12/30 07:27:28;;;;;;;34.15;17.63;;;;;;;17.09;100.00;101125.13;5096318;28;20078;-53
2021/12/30 07:29:53;;;;;;;42.50;17.60;;;;;;;17.60;100.00;101116.56;5096083;28;20371;-54
2021/12/30 07:32:19;;;;;;;39.63;19.23;;;;;;;17.39;100.00;101123.41;5097467;28;20118;-54
2021/12/30 07:34:45;;;;;;;44.90;18.27;;;;;;;17.75;100.00;101125.03;5097168;28;20463;-54
2021/12/30 07:37:14;;;;;;;41.58;17.75;;;;;;;17.69;100.00;101130.56;5096953;28;20448;-53
2021/12/30 07:39:41;;;;;;;41.50;17.07;;;;;;;17.60;100.00;101128.22;5096763;28;20032;-53
2021/12/30 07:42:07;;;;;;;34.70;13.53;;;;;;;17.46;100.00;101148.44;5096755;28;20307;-52
2021/12/30 07:44:32;;;;;;;32.83;12.43;;;;;;;17.38;100.00;101151.50;5097082;28;20296;-53
2021/12/30 07:46:58;;;;;;;35.23;14.17;;;;;;;17.64;100.00;101155.59;5097133;28;20067;-55
2021/12/30 07:49:23;;;;;;;38.10;14.57;;;;;;;17.57;100.00;101166.56;5096499;28;20032;-55
2021/12/30 07:51:49;;;;;;;39.53;13.97;;;;;;;17.55;100.00;101157.84;5096555;28;20064;-56
2021/12/30 07:54:14;;;;;;;30.73;13.43;;;;;;;17.52;100.00;101173.72;5096397;28;20279;-53
2021/12/30 07:56:39;;;;;;;29.90;14.17;;;;;;;17.76;100.00;101169.13;5096622;28;20464;-54
2021/12/30 07:59:05;;;;;;;33.00;13.00;;;;;;;17.57;100.00;101165.72;5096259;28;20264;-51
2021/12/30 08:01:30;;;;;;;29.17;13.47;;;;;;;18.06;100.00;101173.63;5096723;28;20024;-53
2021/12/30 08:03:56;;;;;;;22.83;12.33;;;;;;;17.87;100.00;101178.28;5095450;28;20330;-54
2021/12/30 08:06:26;;;;;;;24.52;11.32;;;;;;;17.73;100.00;101178.53;5096948;28;20036;-55
2021/12/30 08:08:51;;;;;;;27.43;12.03;;;;;;;18.02;100.00;101180.56;5096215;28;20048;-54
2021/12/30 08:11:17;;;;;;;23.63;11.93;;;;;;;18.17;100.00;101180.88;5095042;28;20257;-56
2021/12/30 08:13:42;;;;;;;19.83;11.07;;;;;;;17.96;100.00;101168.78;5095878;28;20448;-51
2021/12/30 08:16:08;;;;;;;21.90;9.87;;;;;;;18.00;100.00;101185.38;5095987;28;20062;-55
2021/12/30 08:18:33;;;;;;;19.00;9.50;;;;;;;17.54;100.00;101167.03;5096329;28;20024;-53
2021/12/30 08:20:59;;;;;;;20.33;9.63;;;;;;;17.90;100.00;101211.13;5095010;28;20036;-53
2021/12/30 08:23:24;;;;;;;17.40;9.33;;;;;;;18.29;100.00;101186.28;5096267;28;20497;-53
2021/12/30 08:25:51;;;;;;;21.05;9.63;;;;;;;18.03;100.00;101184.91;5096311;28;20286;-55
2021/12/30 08:28:21;;;;;;;18.63;8.95;;;;;;;18.30;100.00;101187.09;5096044;28;20042;-52
2021/12/30 08:30:46;;;;;;;22.27;9.80;;;;;;;18.42;100.00;101204.13;5096330;28;20035;-54
2021/12/30 08:33:12;;;;;;;20.90;10.40;;;;;;;18.25;100.00;101195.13;5095196;28;20264;-54
2021/12/30 08:35:38;;;;;;;19.00;9.10;;;;;;;17.90;100.00;101203.00;5095723;28;20039;-52
2021/12/30 08:38:03;;;;;;;18.70;8.95;;;;;;;17.95;100.00;101190.66;5093693;28;20036;-55
2021/12/30 08:40:30;;;;;;;17.48;9.30;;;;;;;17.82;100.00;101189.00;5094717;28;20089;-52
2021/12/30 08:42:55;;;;;;;19.97;9.33;;;;;;;17.86;100.00;101191.00;5095863;28;20036;-54
2021/12/30 08:45:21;;;;;;;23.23;9.77;;;;;;;17.77;100.00;101204.06;5044791;28;20284;-55
2021/12/30 08:47:47;;;;;;;19.92;8.13;;;;;;;17.82;100.00;101208.78;5095319;28;20045;-50
2021/12/30 08:50:15;;;;;;;19.48;7.65;;;;;;;17.82;100.00;101226.88;5095635;28;20371;-51
2021/12/30 08:52:42;;;;;;;30.03;8.23;;;;;;;17.81;100.00;101226.06;5092989;28;20089;-52
2021/12/30 08:55:08;;;;;;;20.23;8.07;;;;;;;17.91;100.00;101226.28;5095181;28;20268;-53
2021/12/30 08:57:37;;;;;;;21.30;7.50;;;;;;;18.12;100.00;101234.91;5095754;28;20289;-57
2021/12/30 09:00:05;;;;;;;20.97;7.23;;;;;;;17.73;100.00;101220.97;5094627;28;20364;-51
2021/12/30 09:02:31;;;;;;;19.83;6.80;;;;;;;17.71;100.00;101231.22;5094962;28;20259;-51
2021/12/30 09:04:56;;;;;;;29.02;8.63;;;;;;;18.04;100.00;101240.69;5095587;28;20292;-51
2021/12/30 09:07:22;;;;;;;25.80;7.80;;;;;;;18.20;100.00;101264.31;5096084;28;20039;-53
2021/12/30 09:09:48;;;;;;;22.02;6.90;;;;;;;18.36;100.00;101224.06;5103863;28;20741;-54
2021/12/30 09:12:13;;;;;;;32.08;7.40;;;;;;;18.28;100.00;101246.09;5107598;28;20161;-57
2021/12/30 09:14:39;;;;;;;27.40;6.80;;;;;;;18.49;100.00;101225.66;5107979;28;20059;-55
2021/12/30 09:17:06;;;;;;;17.15;6.43;;;;;;;18.64;100.00;101217.03;5104297;28;20044;-57
2021/12/30 09:19:31;;;;;;;21.70;6.43;;;;;;;18.74;100.00;101222.66;5102988;28;20067;-54
2021/12/30 09:21:57;;;;;;;16.40;5.23;;;;;;;18.41;100.00;101228.75;5109334;28;20268;-56
2021/12/30 09:24:23;;;;;;;18.65;6.32;;;;;;;18.23;100.00;101218.91;5108380;28;20292;-54
2021/12/30 09:26:49;;;;;;;20.52;6.45;;;;;;;18.54;100.00;101243.91;5110440;28;20028;-53
2021/12/30 09:29:14;;;;;;;17.10;5.90;;;;;;;18.51;100.00;101244.41;5109381;28;20402;-54
2021/12/30 09:31:43;;;;;;;15.05;5.03;;;;;;;18.38;100.00;101234.66;5106347;28;20040;-54
2021/12/30 09:34:08;;;;;;;20.93;6.47;;;;;;;18.52;100.00;101244.16;5106481;28;20024;-54
2021/12/30 09:36:34;;;;;;;26.80;6.07;;;;;;;18.73;100.00;101272.50;5099181;28;20042;-53
2021/12/30 09:39:00;;;;;;;21.08;6.90;;;;;;;18.52;100.00;101252.25;5096319;28;20089;-51
2021/12/30 09:41:26;;;;;;;18.15;6.10;;;;;;;18.81;100.00;101256.91;5099019;28;20036;-55
2021/12/30 09:43:51;;;;;;;22.15;5.97;;;;;;;18.60;100.00;101257.34;5095121;28;20546;-55
2021/12/30 09:46:18;;;;;;;23.38;6.47;;;;;;;18.75;100.00;101261.41;5094982;28;20054;-52
2021/12/30 09:48:44;;;;;;;;;;;;;;;18.49;100.00;101258.16;5094939;28;20063;-50
2021/12/30 09:51:10;;;;;;;27.13;6.23;;;;;;;18.87;100.00;101255.94;5094641;28;19911;-53
2021/12/30 09:53:36;;;;;;;18.95;6.35;;;;;;;18.96;100.00;101251.78;5095049;28;20028;-56
2021/12/30 09:56:01;;;;;;;34.42;6.45;;;;;;;18.84;100.00;101259.13;5094485;28;20035;-49
2021/12/30 09:58:29;;;;;;;19.48;5.70;;;;;;;19.25;100.00;101259.09;5096531;28;20462;-54
2021/12/30 10:00:55;;;;;;;18.10;6.27;;;;;;;19.35;100.00;101281.81;5092906;28;20032;-52
2021/12/30 10:03:21;;;;;;;21.02;5.03;;;;;;;18.94;100.00;101277.47;5093240;28;20527;-52
2021/12/30 10:05:47;;;;;;;19.35;4.95;;;;;;;18.86;100.00;101274.09;5092812;28;20046;-53
2021/12/30 10:08:21;;;;;;;20.73;5.40;;;;;;;18.58;100.00;101289.25;5094798;28;20491;-51
2021/12/30 10:10:49;;;;;;;18.57;4.37;;;;;;;18.65;100.00;101297.22;5099247;28;20044;-54
2021/12/30 10:13:25;;;;;;;19.70;5.07;;;;;;;18.75;100.00;101294.75;5104704;28;20032;-57
2021/12/30 10:15:56;;;;;;;15.20;5.07;;;;;;;18.59;100.00;101323.41;5108689;28;20040;-55
2021/12/30 10:18:24;;;;;;;19.73;5.43;;;;;;;18.64;100.00;101276.63;5107837;28;20253;-55
2021/12/30 10:20:50;;;;;;;26.70;5.90;;;;;;;18.61;100.00;101323.97;5089889;28;20482;-55
2021/12/30 10:23:17;;;;;;;;;;;;;;;18.93;100.00;101292.94;5107947;28;20036;-53
2021/12/30 10:25:51;;;;;;;19.30;6.25;;;;;;;19.20;100.00;101314.88;5108731;28;19916;-52
2021/12/30 10:28:20;;;;;;;24.17;7.37;;;;;;;18.97;100.00;101321.19;5107033;28;20046;-54
2021/12/30 10:30:47;;;;;;;19.83;6.50;;;;;;;19.09;100.00;101304.09;5105659;28;20028;-54
2021/12/30 10:33:15;;;;;;;37.13;7.83;;;;;;;19.40;100.00;101299.25;5102910;28;20035;-53
2021/12/30 10:35:41;;;;;;;24.53;6.87;;;;;;;19.00;100.00;101296.34;5103884;28;20175;-55
2021/12/30 10:38:09;;;;;;;25.52;6.18;;;;;;;19.46;100.00;101306.41;5103854;28;20024;-54
2021/12/30 10:40:58;;;;;;;23.60;6.67;;;;;;;19.08;100.00;101286.19;5098267;28;20046;-51
2021/12/30 10:43:49;;;;;;;22.90;5.80;;;;;;;19.04;100.00;101308.34;5095124;28;20032;-51
2021/12/30 10:46:27;;;;;;;20.30;5.40;;;;;;;18.87;100.00;101280.31;5093493;28;20376;-52
2021/12/30 10:48:58;;;;;;;20.17;5.03;;;;;;;18.68;100.00;101294.03;5093714;28;20039;-50
2021/12/30 10:51:24;;;;;;;15.93;5.10;;;;;;;19.07;100.00;101296.22;5093618;28;20063;-51
2021/12/30 10:53:51;;;;;;;25.25;6.07;;;;;;;19.03;100.00;101282.31;5093516;28;20490;-51
2021/12/30 10:56:31;;;;;;;18.43;6.17;;;;;;;18.96;100.00;101281.63;5075979;28;20379;-50
2021/12/30 10:59:31;;;;;;;17.87;4.67;;;;;;;18.77;100.00;101270.94;5093640;28;20085;-54
2021/12/30 11:02:01;;;;;;;21.13;5.60;;;;;;;18.85;100.00;101280.59;5066483;28;20043;-52
2021/12/30 11:04:36;;;;;;;24.57;5.53;;;;;;;18.89;100.00;101305.28;5097213;28;20022;-51
2021/12/30 11:07:03;;;;;;;16.63;4.67;;;;;;;18.89;100.00;101298.00;5097891;28;20040;-52
2021/12/30 11:09:29;;;;;;;21.23;5.30;;;;;;;19.04;100.00;101291.28;5097088;28;20044;-55